createdAt,value
2018-12-25T00:00:36.547Z,4.27
2018-12-25T00:03:28.516Z,3.37
2018-12-25T00:06:12.252Z,4.27
2018-12-25T00:09:04.675Z,4.27
2018-12-25T00:11:48.784Z,4.87
2018-12-25T00:14:39.817Z,4.60
2018-12-25T00:17:23.532Z,4.50
2018-12-25T00:20:14.555Z,4.67
2018-12-25T00:22:57.977Z,4.30
2018-12-25T00:25:48.925Z,4.47
2018-12-25T00:28:32.801Z,4.05
2018-12-25T00:31:23.819Z,4.00
2018-12-25T00:34:07.224Z,4.40
2018-12-25T00:36:51.013Z,4.33
2018-12-25T00:39:41.962Z,4.27
2018-12-25T00:42:25.505Z,3.73
2018-12-25T00:44:57.507Z,3.90
2018-12-25T00:47:41.110Z,3.70
2018-12-25T00:50:32.052Z,3.97
2018-12-25T00:53:15.817Z,4.20
2018-12-25T00:56:06.763Z,3.60
2018-12-25T00:58:50.201Z,4.13
2018-12-25T01:01:41.219Z,4.10
2018-12-25T01:04:25.094Z,5.57
2018-12-25T01:07:16.111Z,6.55
2018-12-25T01:09:59.913Z,5.80
2018-12-25T01:12:50.853Z,6.30
2018-12-25T01:15:35.432Z,6.08
2018-12-25T01:18:07.359Z,5.40
2018-12-25T01:20:39.108Z,4.40
2018-12-25T01:23:10.882Z,4.33
2018-12-25T01:25:42.686Z,3.97
2018-12-25T01:28:14.422Z,3.87
2018-12-25T01:30:46.255Z,3.55
2018-12-25T01:33:18.075Z,4.70
2018-12-25T01:35:50.207Z,6.30
2018-12-25T01:38:22.332Z,6.30
2018-12-25T01:40:54.072Z,4.87
2018-12-25T01:43:25.810Z,4.78
2018-12-25T01:45:57.571Z,4.43
2018-12-25T01:48:29.422Z,4.37
2018-12-25T01:51:01.236Z,4.27
2018-12-25T01:53:33.060Z,5.08
2018-12-25T01:56:04.877Z,4.53
2018-12-25T01:58:36.605Z,5.40
2018-12-25T02:01:08.503Z,5.10
2018-12-25T02:03:40.243Z,4.93
2018-12-25T02:06:12.270Z,4.77
2018-12-25T02:08:44.122Z,4.93
2018-12-25T02:11:15.955Z,4.53
2018-12-25T02:13:48.058Z,4.93
2018-12-25T02:16:19.801Z,4.95
2018-12-25T02:18:51.613Z,4.37
2018-12-25T02:21:23.394Z,5.30
2018-12-25T02:23:55.129Z,5.17
2018-12-25T02:26:26.901Z,4.97
2018-12-25T02:28:58.789Z,4.50
2018-12-25T02:31:30.616Z,4.90
2018-12-25T02:34:02.452Z,4.77
2018-12-25T02:36:34.534Z,4.63
2018-12-25T02:39:08.708Z,5.33
2018-12-25T02:41:40.493Z,4.73
2018-12-25T02:44:12.224Z,5.30
2018-12-25T02:46:44.291Z,5.43
2018-12-25T02:49:18.324Z,5.05
2018-12-25T02:51:49.489Z,6.00
2018-12-25T02:54:21.651Z,5.77
2018-12-25T02:56:53.448Z,6.07
2018-12-25T02:59:25.456Z,6.40
2018-12-25T03:01:57.485Z,5.83
2018-12-25T03:04:29.220Z,6.10
2018-12-25T03:07:01.350Z,5.40
2018-12-25T03:09:33.089Z,5.43
2018-12-25T03:12:04.904Z,5.87
2018-12-25T03:14:37.038Z,5.30
2018-12-25T03:17:10.016Z,5.70
2018-12-25T03:19:41.740Z,5.00
2018-12-25T03:22:13.472Z,6.00
2018-12-25T03:24:45.205Z,6.13
2018-12-25T03:27:16.940Z,6.35
2018-12-25T03:29:48.662Z,5.80
2018-12-25T03:32:20.773Z,5.62
2018-12-25T03:34:52.485Z,6.47
2018-12-25T03:37:25.990Z,5.60
2018-12-25T03:39:58.153Z,6.17
2018-12-25T03:42:29.893Z,6.17
2018-12-25T03:45:01.616Z,6.30
2018-12-25T03:47:33.686Z,6.27
2018-12-25T03:50:10.833Z,6.13
2018-12-25T03:52:40.133Z,6.50
2018-12-25T03:55:11.934Z,6.27
2018-12-25T03:57:43.686Z,7.23
2018-12-25T04:00:15.427Z,8.33
2018-12-25T04:02:47.162Z,5.60
2018-12-25T04:05:18.908Z,6.22
2018-12-25T04:07:50.651Z,6.47
2018-12-25T04:10:22.650Z,6.70
2018-12-25T04:12:54.416Z,6.57
2018-12-25T04:15:26.147Z,6.87
2018-12-25T04:17:57.906Z,6.50
2018-12-25T04:20:29.638Z,6.85
2018-12-25T04:23:01.376Z,7.10
2018-12-25T04:25:33.115Z,7.20
2018-12-25T04:28:04.861Z,7.65
2018-12-25T04:30:36.606Z,7.70
2018-12-25T04:33:08.346Z,6.43
2018-12-25T04:35:40.094Z,7.00
2018-12-25T04:38:11.842Z,6.85
2018-12-25T04:40:43.575Z,6.77
2018-12-25T04:43:15.331Z,6.80
2018-12-25T04:45:47.063Z,7.13
2018-12-25T04:48:18.804Z,6.90
2018-12-25T04:50:50.837Z,7.83
2018-12-25T04:53:22.778Z,6.25
2018-12-25T04:55:54.494Z,7.10
2018-12-25T04:58:26.568Z,7.87
2018-12-25T05:00:58.381Z,7.33
2018-12-25T05:03:30.124Z,6.33
2018-12-25T05:06:02.122Z,7.10
2018-12-25T05:08:33.871Z,6.97
2018-12-25T05:11:05.754Z,6.57
2018-12-25T05:13:37.542Z,7.30
2018-12-25T05:16:10.263Z,6.45
2018-12-25T05:18:41.985Z,7.17
2018-12-25T05:21:13.725Z,7.03
2018-12-25T05:23:45.476Z,7.30
2018-12-25T05:26:17.220Z,6.78
2018-12-25T05:28:49.289Z,6.53
2018-12-25T05:31:21.047Z,6.20
2018-12-25T05:33:52.886Z,5.97
2018-12-25T05:36:24.640Z,5.65
2018-12-25T05:38:56.378Z,6.80
2018-12-25T05:41:28.108Z,6.87
2018-12-25T05:43:59.956Z,6.53
2018-12-25T05:46:31.796Z,6.80
2018-12-25T05:49:03.534Z,6.93
2018-12-25T05:51:35.568Z,7.57
2018-12-25T05:54:07.326Z,6.77
2018-12-25T05:56:39.042Z,7.70
2018-12-25T05:59:10.784Z,5.60
2018-12-25T06:01:42.525Z,6.47
2018-12-25T06:04:14.267Z,3.12
2018-12-25T06:06:45.998Z,6.33
2018-12-25T06:09:17.746Z,6.37
2018-12-25T06:11:49.490Z,6.40
2018-12-25T06:14:21.262Z,4.20
2018-12-25T06:16:53.062Z,7.20
2018-12-25T06:19:25.263Z,7.10
2018-12-25T06:21:56.990Z,7.07
2018-12-25T06:24:28.743Z,7.00
2018-12-25T06:27:00.481Z,7.07
2018-12-25T06:29:32.231Z,6.87
2018-12-25T06:32:03.965Z,7.37
2018-12-25T06:34:35.750Z,7.43
2018-12-25T06:37:07.507Z,8.05
2018-12-25T06:39:39.336Z,6.50
2018-12-25T06:42:11.138Z,7.00
2018-12-25T06:44:42.981Z,6.70
2018-12-25T06:47:14.999Z,6.37
2018-12-25T06:49:46.756Z,11.97
2018-12-25T06:52:20.516Z,6.30
2018-12-25T06:54:51.947Z,7.23
2018-12-25T06:57:23.780Z,4.53
2018-12-25T06:59:55.526Z,5.87
2018-12-25T07:02:27.260Z,3.67
2018-12-25T07:04:59.009Z,4.73
2018-12-25T07:07:30.758Z,6.95
2018-12-25T07:10:02.572Z,6.77
2018-12-25T07:12:34.317Z,7.07
2018-12-25T07:15:06.316Z,6.33
2018-12-25T07:17:57.267Z,7.37
2018-12-25T07:20:40.703Z,6.63
2018-12-25T07:23:31.646Z,6.30
2018-12-25T07:26:15.752Z,7.13
2018-12-25T07:29:06.711Z,6.70
2018-12-25T07:31:50.642Z,7.13
2018-12-25T07:34:42.155Z,8.10
2018-12-25T07:37:26.055Z,7.55
2018-12-25T07:40:16.995Z,7.67
2018-12-25T07:43:00.876Z,7.28
2018-12-25T07:45:51.929Z,6.78
2018-12-25T07:48:35.456Z,7.03
2018-12-25T07:51:20.796Z,7.67
2018-12-25T07:54:11.362Z,6.47
2018-12-25T07:56:54.835Z,7.67
2018-12-25T07:59:45.783Z,8.33
2018-12-25T08:02:27.846Z,7.87
2018-12-25T08:05:18.967Z,7.77
2018-12-25T08:08:02.294Z,7.97
2018-12-25T08:10:53.246Z,7.03
2018-12-25T08:13:36.796Z,6.67
2018-12-25T08:16:28.036Z,7.30
2018-12-25T08:19:12.126Z,6.87
2018-12-25T08:21:55.599Z,6.03
2018-12-25T08:24:46.824Z,7.35
2018-12-25T08:27:30.726Z,7.67
2018-12-25T08:30:21.687Z,7.47
2018-12-25T08:33:05.495Z,7.03
2018-12-25T08:35:49.185Z,7.20
2018-12-25T08:38:40.144Z,22.15
2018-12-25T08:41:23.627Z,9.37
2018-12-25T08:44:14.574Z,7.37
2018-12-25T08:47:02.582Z,6.87
2018-12-25T08:49:50.693Z,6.20
2018-12-25T08:52:34.019Z,6.25
2018-12-25T08:55:25.073Z,7.00
2018-12-25T08:58:07.177Z,6.45
2018-12-25T09:00:58.189Z,7.37
2018-12-25T09:03:42.271Z,7.47
2018-12-25T09:06:33.204Z,6.35
2018-12-25T09:09:17.266Z,7.00
2018-12-25T09:12:08.470Z,7.33
2018-12-25T09:14:51.975Z,7.50
2018-12-25T09:17:42.938Z,8.43
2018-12-25T09:20:26.284Z,6.35
2018-12-25T09:23:17.577Z,8.40
2018-12-25T09:26:01.314Z,7.10
2018-12-25T09:28:52.268Z,7.40
2018-12-25T09:31:36.287Z,7.37
2018-12-25T09:34:20.014Z,7.63
2018-12-25T09:37:03.790Z,8.50
2018-12-25T09:39:54.746Z,8.43
2018-12-25T09:42:38.556Z,8.50
2018-12-25T09:45:29.500Z,6.97
2018-12-25T09:48:13.492Z,6.90
2018-12-25T09:50:57.514Z,8.30
2018-12-25T09:53:40.990Z,7.87
2018-12-25T09:56:31.927Z,8.40
2018-12-25T09:59:15.516Z,8.43
2018-12-25T10:02:07.422Z,9.13
2018-12-25T10:04:51.269Z,7.83
2018-12-25T10:07:42.280Z,8.80
2018-12-25T10:10:25.970Z,8.67
2018-12-25T10:13:09.398Z,12.27
2018-12-25T10:15:53.263Z,6.00
2018-12-25T10:18:44.454Z,5.47
2018-12-25T10:21:28.914Z,9.25
2018-12-25T10:24:19.864Z,7.60
2018-12-25T10:27:03.714Z,7.97
2018-12-25T10:29:47.454Z,7.90
2018-12-25T10:32:38.406Z,7.33
2018-12-25T10:35:22.208Z,7.83
2018-12-25T10:38:13.391Z,8.33
2018-12-25T10:40:57.526Z,3.47
2018-12-25T10:43:48.468Z,7.70
2018-12-25T10:46:32.607Z,7.42
2018-12-25T10:49:23.574Z,5.30
2018-12-25T10:52:11.537Z,5.33
2018-12-25T10:55:00.203Z,5.55
2018-12-25T10:57:43.758Z,4.58
2018-12-25T11:00:41.687Z,4.58
2018-12-25T11:03:25.729Z,3.93
2018-12-25T11:06:09.143Z,5.60
2018-12-25T11:09:00.117Z,5.13
2018-12-25T11:11:43.789Z,5.97
2018-12-25T11:14:34.738Z,5.70
2018-12-25T11:17:18.511Z,5.60
2018-12-25T11:20:11.537Z,6.10
2018-12-25T11:23:03.938Z,5.20
2018-12-25T11:25:54.888Z,3.37
2018-12-25T11:28:39.952Z,5.37
2018-12-25T11:31:31.374Z,5.67
2018-12-25T11:34:14.684Z,6.53
2018-12-25T11:36:58.345Z,5.33
2018-12-25T11:39:49.694Z,6.63
2018-12-25T11:42:43.718Z,7.27
2018-12-25T11:45:36.818Z,6.10
2018-12-25T11:48:39.408Z,6.15
2018-12-25T11:51:30.348Z,5.60
2018-12-25T11:54:14.256Z,7.47
2018-12-25T11:57:05.272Z,9.97
2018-12-25T11:59:36.983Z,4.87
2018-12-25T12:02:28.911Z,4.28
2018-12-25T12:05:13.029Z,3.63
2018-12-25T12:08:04.269Z,3.17
2018-12-25T12:10:47.746Z,2.30
2018-12-25T12:13:38.704Z,6.47
2018-12-25T12:16:41.375Z,6.73
2018-12-25T12:19:32.328Z,5.30
2018-12-25T12:22:15.640Z,5.37
2018-12-25T12:25:06.797Z,6.33
2018-12-25T12:27:50.741Z,5.30
2018-12-25T12:30:41.671Z,5.07
2018-12-25T12:33:25.922Z,4.87
2018-12-25T12:36:09.713Z,6.10
2018-12-25T12:39:00.639Z,7.73
2018-12-25T12:41:43.899Z,6.00
2018-12-25T12:44:27.571Z,7.10
2018-12-25T12:47:11.039Z,5.60
2018-12-25T12:50:01.977Z,6.00
2018-12-25T12:52:46.026Z,4.57
2018-12-25T12:55:36.955Z,4.72
2018-12-25T12:58:21.182Z,4.90
2018-12-25T13:01:12.359Z,5.37
2018-12-25T13:03:56.050Z,5.60
2018-12-25T13:06:48.265Z,4.93
2018-12-25T13:09:32.269Z,4.97
2018-12-25T13:12:23.209Z,5.93
2018-12-25T13:15:07.157Z,5.80
2018-12-25T13:17:39.157Z,5.20
2018-12-25T13:20:10.892Z,6.90
2018-12-25T13:22:42.605Z,4.43
2018-12-25T13:25:14.340Z,5.40
2018-12-25T13:27:46.061Z,5.67
2018-12-25T13:30:17.829Z,5.53
2018-12-25T13:32:49.568Z,4.13
2018-12-25T13:35:21.330Z,4.90
2018-12-25T13:37:53.049Z,7.43
2018-12-25T13:40:24.952Z,5.97
2018-12-25T13:42:56.674Z,5.20
2018-12-25T13:45:28.402Z,5.93
2018-12-25T13:48:00.111Z,4.80
2018-12-25T13:50:31.834Z,5.60
2018-12-25T13:53:03.682Z,3.87
2018-12-25T13:55:35.475Z,5.37
2018-12-25T13:58:07.195Z,4.85
2018-12-25T14:00:38.927Z,5.20
2018-12-25T14:03:10.681Z,4.73
2018-12-25T14:05:42.400Z,5.47
2018-12-25T14:08:14.114Z,5.67
2018-12-25T14:10:45.845Z,5.67
2018-12-25T14:13:17.596Z,4.67
2018-12-25T14:15:49.325Z,5.70
2018-12-25T14:18:21.365Z,4.50
2018-12-25T14:20:53.108Z,5.33
2018-12-25T14:23:24.847Z,5.10
2018-12-25T14:25:56.580Z,5.07
2018-12-25T14:28:28.296Z,5.20
2018-12-25T14:31:00.029Z,5.27
2018-12-25T14:33:32.030Z,5.50
2018-12-25T14:36:03.800Z,4.87
2018-12-25T14:38:35.521Z,7.57
2018-12-25T14:41:09.358Z,5.37
2018-12-25T14:43:40.670Z,5.80
2018-12-25T14:46:12.386Z,5.40
2018-12-25T14:48:44.095Z,5.40
2018-12-25T14:51:15.882Z,4.35
2018-12-25T14:53:47.589Z,5.53
2018-12-25T14:56:19.402Z,5.15
2018-12-25T14:58:51.136Z,4.37
2018-12-25T15:01:23.012Z,4.37
2018-12-25T15:03:54.814Z,5.97
2018-12-25T15:06:26.550Z,5.62
2018-12-25T15:08:58.270Z,5.40
2018-12-25T15:11:30.015Z,5.40
2018-12-25T15:14:02.772Z,4.90
2018-12-25T15:16:34.492Z,5.33
2018-12-25T15:19:06.299Z,4.37
2018-12-25T15:21:38.029Z,5.33
2018-12-25T15:24:09.804Z,5.03
2018-12-25T15:26:41.597Z,5.07
2018-12-25T15:29:13.351Z,6.37
2018-12-25T15:31:45.074Z,5.73
2018-12-25T15:34:16.816Z,7.60
2018-12-25T15:36:48.551Z,6.70
2018-12-25T15:39:20.318Z,6.35
2018-12-25T15:41:52.053Z,6.70
2018-12-25T15:44:24.154Z,6.33
2018-12-25T15:46:55.961Z,8.07
2018-12-25T15:49:27.688Z,7.78
2018-12-25T15:51:59.463Z,7.17
2018-12-25T15:54:31.184Z,7.67
2018-12-25T15:57:04.672Z,7.50
2018-12-25T15:59:36.386Z,6.13
2018-12-25T16:02:08.128Z,5.90
2018-12-25T16:04:39.930Z,6.50
2018-12-25T16:07:11.865Z,6.47
2018-12-25T16:09:43.980Z,7.00
2018-12-25T16:12:15.724Z,7.50
2018-12-25T16:14:47.523Z,7.40
2018-12-25T16:17:19.254Z,9.73
2018-12-25T16:19:50.974Z,7.97
2018-12-25T16:22:23.096Z,7.43
2018-12-25T16:24:54.850Z,5.83
2018-12-25T16:27:26.635Z,6.12
2018-12-25T16:29:58.371Z,6.30
2018-12-25T16:32:30.097Z,5.40
2018-12-25T16:35:01.850Z,5.47
2018-12-25T16:37:33.617Z,5.50
2018-12-25T16:40:06.503Z,5.30
2018-12-25T16:42:38.312Z,5.30
2018-12-25T16:45:10.111Z,4.27
2018-12-25T16:47:41.876Z,5.73
2018-12-25T16:50:13.606Z,4.87
2018-12-25T16:52:46.834Z,5.65
2018-12-25T16:55:18.809Z,4.87
2018-12-25T16:57:50.597Z,5.30
2018-12-25T17:00:22.349Z,5.17
2018-12-25T17:02:54.088Z,4.80
2018-12-25T17:05:26.140Z,3.90
2018-12-25T17:07:57.884Z,4.60
2018-12-25T17:10:29.940Z,4.67
2018-12-25T17:13:01.961Z,4.80
2018-12-25T17:15:33.684Z,5.23
2018-12-25T17:18:05.432Z,4.70
2018-12-25T17:20:37.262Z,5.20
2018-12-25T17:23:10.072Z,4.47
2018-12-25T17:25:42.123Z,4.50
2018-12-25T17:28:13.854Z,4.30
2018-12-25T17:30:45.627Z,5.37
2018-12-25T17:33:17.380Z,5.50
2018-12-25T17:35:49.126Z,7.23
2018-12-25T17:38:20.891Z,5.50
2018-12-25T17:40:52.600Z,6.53
2018-12-25T17:43:24.417Z,7.60
2018-12-25T17:45:57.232Z,6.30
2018-12-25T17:48:28.975Z,5.57
2018-12-25T17:51:00.724Z,4.30
2018-12-25T17:53:32.552Z,6.23
2018-12-25T17:56:04.291Z,5.07
2018-12-25T17:58:36.034Z,4.83
2018-12-25T18:01:07.760Z,5.43
2018-12-25T18:03:39.509Z,5.27
2018-12-25T18:06:11.308Z,5.77
2018-12-25T18:08:43.111Z,7.03
2018-12-25T18:11:14.935Z,9.63
2018-12-25T18:13:47.033Z,6.70
2018-12-25T18:16:18.766Z,5.73
2018-12-25T18:18:51.159Z,5.43
2018-12-25T18:21:22.934Z,4.78
2018-12-25T18:23:54.669Z,5.67
2018-12-25T18:26:26.912Z,5.65
2018-12-25T18:28:58.619Z,5.70
2018-12-25T18:31:31.600Z,6.17
2018-12-25T18:34:03.354Z,6.10
2018-12-25T18:36:35.115Z,6.00
2018-12-25T18:39:08.316Z,6.40
2018-12-25T18:41:40.062Z,6.00
2018-12-25T18:44:11.869Z,6.40
2018-12-25T18:46:43.609Z,6.67
2018-12-25T18:49:15.387Z,6.00
2018-12-25T18:51:47.113Z,5.77
2018-12-25T18:54:18.855Z,5.53
2018-12-25T18:56:50.657Z,5.50
2018-12-25T18:59:22.459Z,6.25
2018-12-25T19:01:54.208Z,6.40
2018-12-25T19:04:26.906Z,6.70
2018-12-25T19:06:58.792Z,7.33
2018-12-25T19:09:30.572Z,7.17
2018-12-25T19:12:02.302Z,6.53
2018-12-25T19:14:34.120Z,8.23
2018-12-25T19:17:25.087Z,9.00
2018-12-25T19:20:16.264Z,9.53
2018-12-25T19:23:07.214Z,7.33
2018-12-25T19:25:50.975Z,7.50
2018-12-25T19:28:41.924Z,7.28
2018-12-25T19:31:25.344Z,7.27
2018-12-25T19:34:16.297Z,8.90
2018-12-25T19:37:00.051Z,8.90
2018-12-25T19:39:43.433Z,9.63
2018-12-25T19:42:34.397Z,9.40
2018-12-25T19:45:19.670Z,9.17
2018-12-25T19:48:10.723Z,8.23
2018-12-25T19:50:54.769Z,8.43
2018-12-25T19:53:45.791Z,11.83
2018-12-25T19:56:29.279Z,10.85
2018-12-25T19:59:13.268Z,11.23
2018-12-25T20:02:04.516Z,10.90
2018-12-25T20:05:07.693Z,10.73
2018-12-25T20:08:37.149Z,9.23
2018-12-25T20:11:40.694Z,10.63
2018-12-25T20:15:10.125Z,9.50
2018-12-25T20:21:57.630Z,7.77
2018-12-25T20:25:00.949Z,7.77
2018-12-25T20:32:24.997Z,7.45
2018-12-25T20:35:16.327Z,5.95
2018-12-25T20:38:18.983Z,6.10
2018-12-25T20:41:25.476Z,6.43
2018-12-25T20:44:54.880Z,6.40
2018-12-25T20:48:02.407Z,6.53
2018-12-25T20:51:05.040Z,6.83
2018-12-25T20:54:08.465Z,6.87
2018-12-25T20:57:17.673Z,7.60
2018-12-25T21:00:47.076Z,7.53
2018-12-25T21:03:42.194Z,5.80
2018-12-25T21:06:36.221Z,6.37
2018-12-25T21:10:05.813Z,6.42
2018-12-25T21:13:11.331Z,6.23
2018-12-25T21:20:13.754Z,5.53
2018-12-25T21:23:16.783Z,6.10
2018-12-25T21:26:46.191Z,6.37
2018-12-25T21:29:30.361Z,5.80
2018-12-25T21:32:22.402Z,5.40
2018-12-25T21:35:08.136Z,5.90
2018-12-25T21:37:51.943Z,5.23
2018-12-25T21:40:36.144Z,5.70
2018-12-25T21:43:19.664Z,6.03
2018-12-25T21:46:02.874Z,5.53
2018-12-25T21:51:56.380Z,5.77
2018-12-25T21:54:47.469Z,5.97
2018-12-25T21:57:31.503Z,7.50
2018-12-25T22:00:24.310Z,7.03
2018-12-25T22:03:07.892Z,7.50
2018-12-25T22:05:58.852Z,7.97
2018-12-25T22:08:42.294Z,7.53
2018-12-25T22:11:26.204Z,7.50
2018-12-25T22:14:17.140Z,6.70
2018-12-25T22:17:00.971Z,7.60
2018-12-25T22:19:51.918Z,7.77
2018-12-25T22:22:35.363Z,7.97
2018-12-25T22:25:27.250Z,7.63
2018-12-25T22:28:20.297Z,6.93
2018-12-25T22:31:11.838Z,7.03
2018-12-25T22:33:55.844Z,7.07
2018-12-25T22:36:39.658Z,7.17
2018-12-25T22:39:22.937Z,7.27
2018-12-25T22:42:06.386Z,6.40
2018-12-25T22:44:38.184Z,5.63
2018-12-25T22:47:21.667Z,5.73
2018-12-25T22:50:12.589Z,5.47
2018-12-25T22:52:54.751Z,5.70
2018-12-25T22:55:45.691Z,6.78
2018-12-25T22:58:29.729Z,6.45
2018-12-25T23:01:20.988Z,6.30
2018-12-25T23:04:04.481Z,6.53
2018-12-25T23:06:55.426Z,6.27
2018-12-25T23:09:38.992Z,5.75
2018-12-25T23:12:29.947Z,6.65
2018-12-25T23:15:13.501Z,5.70
2018-12-25T23:17:57.683Z,6.80
2018-12-25T23:20:48.699Z,7.90
2018-12-25T23:23:32.427Z,6.30
2018-12-25T23:26:24.100Z,6.03
2018-12-25T23:29:07.446Z,6.60
2018-12-25T23:31:58.387Z,6.67
2018-12-25T23:34:41.794Z,6.13
2018-12-25T23:37:25.260Z,6.43
2018-12-25T23:40:16.221Z,5.87
2018-12-25T23:43:00.352Z,5.93
2018-12-25T23:45:44.218Z,5.13
2018-12-25T23:48:28.315Z,5.70
2018-12-25T23:51:19.262Z,6.27
2018-12-25T23:54:03.192Z,6.57
2018-12-25T23:56:54.144Z,7.43
2018-12-25T23:59:38.045Z,6.47
